createdAt,value
2016-08-19T00:00:58.905Z,1002.17
2016-08-19T00:01:58.895Z,1002.19
2016-08-19T00:02:58.886Z,1002.2
2016-08-19T00:03:58.877Z,1002.18
2016-08-19T00:04:58.868Z,1002.17
2016-08-19T00:05:58.858Z,1002.15
2016-08-19T00:06:58.848Z,1002.14
2016-08-19T00:07:58.837Z,1002.17
2016-08-19T00:08:58.829Z,1002.16
2016-08-19T00:09:58.819Z,1002.14
2016-08-19T00:10:58.809Z,1002.17
2016-08-19T00:11:58.798Z,1002.13
2016-08-19T00:12:58.789Z,1002.12
2016-08-19T00:13:58.779Z,1002.1
2016-08-19T00:14:58.772Z,1002.1
2016-08-19T00:15:58.762Z,1002.1
2016-08-19T00:16:58.750Z,1002.03
2016-08-19T00:17:58.740Z,1002.06
2016-08-19T00:18:58.731Z,1002.04
2016-08-19T00:19:58.722Z,1002.07
2016-08-19T00:20:58.712Z,1002.02
2016-08-19T00:21:58.702Z,1002.03
2016-08-19T00:22:58.692Z,1002.02
2016-08-19T00:23:58.683Z,1001.99
2016-08-19T00:24:58.673Z,1002
2016-08-19T00:25:58.663Z,1002.02
2016-08-19T00:26:58.654Z,1002
2016-08-19T00:27:58.643Z,1002.01
2016-08-19T00:28:58.635Z,1002.01
2016-08-19T00:29:58.622Z,1002.02
2016-08-19T00:30:58.613Z,1002
2016-08-19T00:31:58.605Z,1001.99
2016-08-19T00:32:58.594Z,1002
2016-08-19T00:33:58.583Z,1002.03
2016-08-19T00:34:58.575Z,1002
2016-08-19T00:35:58.564Z,1001.98
2016-08-19T00:36:58.554Z,1002
2016-08-19T00:37:58.544Z,1002.01
2016-08-19T00:38:58.536Z,1002
2016-08-19T00:39:58.525Z,1001.99
2016-08-19T00:40:58.516Z,1001.99
2016-08-19T00:41:58.504Z,1002
2016-08-19T00:42:58.495Z,1001.99
2016-08-19T00:43:58.486Z,1001.97
2016-08-19T00:44:58.475Z,1001.98
2016-08-19T00:45:58.463Z,1001.98
2016-08-19T00:46:58.455Z,1002
2016-08-19T00:47:58.446Z,1002
2016-08-19T00:48:58.435Z,1001.98
2016-08-19T00:49:58.433Z,1001.95
2016-08-19T00:50:58.416Z,1001.96
2016-08-19T00:51:58.406Z,1001.95
2016-08-19T00:52:58.396Z,1001.89
2016-08-19T00:53:58.385Z,1001.91
2016-08-19T00:54:58.376Z,1001.92
2016-08-19T00:55:58.368Z,1001.95
2016-08-19T00:56:58.356Z,1001.95
2016-08-19T00:57:58.348Z,1001.95
2016-08-19T00:58:58.336Z,1001.96
2016-08-19T00:59:58.327Z,1001.95
2016-08-19T01:00:58.316Z,1001.97
2016-08-19T01:01:58.307Z,1001.97
2016-08-19T01:02:58.296Z,1001.96
2016-08-19T01:03:58.287Z,1001.96
2016-08-19T01:04:58.277Z,1001.95
2016-08-19T01:05:58.265Z,1001.94
2016-08-19T01:06:58.258Z,1001.93
2016-08-19T01:07:58.246Z,1001.94
2016-08-19T01:08:58.239Z,1001.95
2016-08-19T01:09:58.225Z,1001.97
2016-08-19T01:10:58.216Z,1001.96
2016-08-19T01:11:58.205Z,1001.96
2016-08-19T01:12:58.195Z,1001.94
2016-08-19T01:13:58.187Z,1001.94
2016-08-19T01:14:58.175Z,1001.96
2016-08-19T01:15:58.165Z,1001.96
2016-08-19T01:16:58.154Z,1001.95
2016-08-19T01:17:58.145Z,1001.96
2016-08-19T01:18:58.135Z,1001.93
2016-08-19T01:19:58.126Z,1001.91
2016-08-19T01:20:58.114Z,1001.88
2016-08-19T01:21:58.105Z,1001.84
2016-08-19T01:22:58.095Z,1001.85
2016-08-19T01:23:58.085Z,1001.82
2016-08-19T01:24:58.072Z,1001.83
2016-08-19T01:25:58.063Z,1001.83
2016-08-19T01:26:58.053Z,1001.87
2016-08-19T01:27:58.043Z,1001.85
2016-08-19T01:28:58.033Z,1001.86
2016-08-19T01:29:58.023Z,1001.85
2016-08-19T01:30:58.014Z,1001.86
2016-08-19T01:31:58.002Z,1001.85
2016-08-19T01:32:57.991Z,1001.85
2016-08-19T01:33:57.982Z,1001.9
2016-08-19T01:34:57.972Z,1001.88
2016-08-19T01:35:57.959Z,1001.82
2016-08-19T01:36:57.950Z,1001.84
2016-08-19T01:37:57.941Z,1001.81
2016-08-19T01:38:57.930Z,1001.84
2016-08-19T01:39:57.918Z,1001.85
2016-08-19T01:40:57.912Z,1001.87
2016-08-19T01:41:57.899Z,1001.88
2016-08-19T01:42:57.887Z,1001.9
2016-08-19T01:43:57.879Z,1001.92
2016-08-19T01:44:57.867Z,1001.85
2016-08-19T01:45:57.857Z,1001.87
2016-08-19T01:46:57.846Z,1001.82
2016-08-19T01:47:57.838Z,1001.82
2016-08-19T01:48:57.827Z,1001.84
2016-08-19T01:49:57.816Z,1001.82
2016-08-19T01:50:57.805Z,1001.79
2016-08-19T01:51:57.797Z,1001.78
2016-08-19T01:52:57.788Z,1001.76
2016-08-19T01:53:57.776Z,1001.78
2016-08-19T01:54:57.763Z,1001.74
2016-08-19T01:55:57.755Z,1001.76
2016-08-19T01:56:57.744Z,1001.76
2016-08-19T01:57:57.733Z,1001.71
2016-08-19T01:58:57.722Z,1001.75
2016-08-19T01:59:57.713Z,1001.72
2016-08-19T02:00:57.701Z,1001.72
2016-08-19T02:01:57.692Z,1001.74
2016-08-19T02:02:57.681Z,1001.71
2016-08-19T02:03:57.671Z,1001.73
2016-08-19T02:04:57.660Z,1001.73
2016-08-19T02:05:57.649Z,1001.73
2016-08-19T02:06:57.639Z,1001.73
2016-08-19T02:07:57.629Z,1001.69
2016-08-19T02:08:57.624Z,1001.69
2016-08-19T02:09:57.608Z,1001.7
2016-08-19T02:10:57.598Z,1001.66
2016-08-19T02:11:57.586Z,1001.72
2016-08-19T02:12:57.576Z,1001.68
2016-08-19T02:14:57.555Z,1001.74
2016-08-19T02:15:57.545Z,1001.7
2016-08-19T02:16:57.534Z,1001.76
2016-08-19T02:17:57.524Z,1001.72
2016-08-19T02:18:57.514Z,1001.72
2016-08-19T02:19:57.502Z,1001.77
2016-08-19T02:20:57.492Z,1001.77
2016-08-19T02:21:57.482Z,1001.76
2016-08-19T02:22:57.470Z,1001.8
2016-08-19T02:23:57.459Z,1001.78
2016-08-19T02:24:57.450Z,1001.79
2016-08-19T02:25:57.444Z,1001.79
2016-08-19T02:26:57.432Z,1001.79
2016-08-19T02:27:57.418Z,1001.79
2016-08-19T02:28:57.408Z,1001.79
2016-08-19T02:29:57.399Z,1001.78
2016-08-19T02:30:57.388Z,1001.76
2016-08-19T02:31:57.377Z,1001.77
2016-08-19T02:32:57.367Z,1001.76
2016-08-19T02:33:57.356Z,1001.77
2016-08-19T02:34:57.344Z,1001.77
2016-08-19T02:35:57.334Z,1001.73
2016-08-19T02:36:57.324Z,1001.74
2016-08-19T02:37:57.312Z,1001.71
2016-08-19T02:38:57.304Z,1001.75
2016-08-19T02:39:57.293Z,1001.78
2016-08-19T02:40:57.281Z,1001.74
2016-08-19T02:41:57.275Z,1001.74
2016-08-19T02:42:57.260Z,1001.76
2016-08-19T02:43:57.251Z,1001.77
2016-08-19T02:44:57.239Z,1001.75
2016-08-19T02:45:57.234Z,1001.78
2016-08-19T02:46:57.218Z,1001.77
2016-08-19T02:47:57.212Z,1001.76
2016-08-19T02:48:57.200Z,1001.74
2016-08-19T02:49:57.193Z,1001.74
2016-08-19T02:50:57.176Z,1001.7
2016-08-19T02:51:57.165Z,1001.73
2016-08-19T02:52:57.154Z,1001.76
2016-08-19T02:53:57.145Z,1001.75
2016-08-19T02:54:57.133Z,1001.75
2016-08-19T02:55:57.123Z,1001.75
2016-08-19T02:56:57.113Z,1001.74
2016-08-19T02:57:57.106Z,1001.73
2016-08-19T02:58:57.091Z,1001.74
2016-08-19T02:59:57.081Z,1001.72
2016-08-19T03:00:57.069Z,1001.74
2016-08-19T03:01:57.060Z,1001.75
2016-08-19T03:02:57.048Z,1001.74
2016-08-19T03:03:57.038Z,1001.75
2016-08-19T03:04:57.025Z,1001.8
2016-08-19T03:05:57.018Z,1001.76
2016-08-19T03:06:57.005Z,1001.75
2016-08-19T03:07:57.007Z,1001.75
2016-08-19T03:08:56.984Z,1001.74
2016-08-19T03:09:56.977Z,1001.73
2016-08-19T03:10:56.964Z,1001.69
2016-08-19T03:11:56.953Z,1001.7
2016-08-19T03:12:56.941Z,1001.71
2016-08-19T03:13:56.931Z,1001.68
2016-08-19T03:14:56.919Z,1001.65
2016-08-19T03:15:56.909Z,1001.7
2016-08-19T03:16:56.899Z,1001.67
2016-08-19T03:17:56.887Z,1001.67
2016-08-19T03:18:56.878Z,1001.67
2016-08-19T03:19:56.868Z,1001.62
2016-08-19T03:20:56.856Z,1001.66
2016-08-19T03:21:56.846Z,1001.67
2016-08-19T03:22:56.835Z,1001.62
2016-08-19T03:23:56.825Z,1001.61
2016-08-19T03:24:56.813Z,1001.61
2016-08-19T03:25:56.801Z,1001.64
2016-08-19T03:26:56.793Z,1001.59
2016-08-19T03:27:56.780Z,1001.56
2016-08-19T03:28:56.769Z,1001.54
2016-08-19T03:29:56.761Z,1001.53
2016-08-19T03:30:56.750Z,1001.55
2016-08-19T03:31:56.739Z,1001.51
2016-08-19T03:32:56.729Z,1001.51
2016-08-19T03:33:56.716Z,1001.53
2016-08-19T03:34:56.707Z,1001.51
2016-08-19T03:35:56.695Z,1001.51
2016-08-19T03:36:56.685Z,1001.55
2016-08-19T03:37:56.673Z,1001.54
2016-08-19T03:38:56.661Z,1001.61
2016-08-19T03:39:56.651Z,1001.63
2016-08-19T03:40:56.641Z,1001.68
2016-08-19T03:41:56.629Z,1001.7
2016-08-19T03:42:56.618Z,1001.7
2016-08-19T03:43:56.607Z,1001.74
2016-08-19T03:44:56.596Z,1001.72
2016-08-19T03:45:56.586Z,1001.72
2016-08-19T03:46:56.573Z,1001.75
2016-08-19T03:47:56.564Z,1001.77
2016-08-19T03:48:56.553Z,1001.78
2016-08-19T03:49:56.544Z,1001.77
2016-08-19T03:50:56.531Z,1001.8
2016-08-19T03:51:56.519Z,1001.77
2016-08-19T03:52:56.510Z,1001.78
2016-08-19T03:53:56.499Z,1001.79
2016-08-19T03:54:56.488Z,1001.85
2016-08-19T03:55:56.478Z,1001.79
2016-08-19T03:56:56.465Z,1001.83
2016-08-19T03:57:56.454Z,1001.84
2016-08-19T03:58:56.446Z,1001.86
2016-08-19T03:59:56.433Z,1001.92
2016-08-19T04:00:56.423Z,1001.93
2016-08-19T04:01:56.410Z,1001.96
2016-08-19T04:02:56.400Z,1001.94
2016-08-19T04:03:56.390Z,1001.98
2016-08-19T04:04:56.379Z,1001.93
2016-08-19T04:05:56.371Z,1001.94
2016-08-19T04:06:56.358Z,1001.98
2016-08-19T04:07:56.351Z,1001.93
2016-08-19T04:08:56.334Z,1001.94
2016-08-19T04:09:56.343Z,1001.98
2016-08-19T04:10:56.313Z,1001.94
2016-08-19T04:11:56.302Z,1001.98
2016-08-19T04:12:56.291Z,1001.96
2016-08-19T04:13:56.280Z,1001.95
2016-08-19T04:14:56.271Z,1001.98
2016-08-19T04:15:56.257Z,1001.98
2016-08-19T04:16:56.248Z,1002
2016-08-19T04:17:56.236Z,1001.95
2016-08-19T04:18:56.226Z,1001.95
2016-08-19T04:19:56.214Z,1001.9
2016-08-19T04:20:56.203Z,1001.88
2016-08-19T04:21:56.192Z,1001.88
2016-08-19T04:22:56.182Z,1001.88
2016-08-19T04:23:56.170Z,1001.92
2016-08-19T04:24:56.161Z,1001.91
2016-08-19T04:25:56.149Z,1001.89
2016-08-19T04:26:56.140Z,1001.87
2016-08-19T04:27:56.125Z,1001.89
2016-08-19T04:28:56.113Z,1001.88
2016-08-19T04:29:56.112Z,1001.9
2016-08-19T04:30:56.090Z,1001.89
2016-08-19T04:31:56.105Z,1001.87
2016-08-19T04:32:56.070Z,1001.89
2016-08-19T04:33:56.061Z,1001.92
2016-08-19T04:34:56.047Z,1001.87
2016-08-19T04:35:56.036Z,1001.95
2016-08-19T04:36:56.025Z,1001.91
2016-08-19T04:37:56.014Z,1001.91
2016-08-19T04:38:56.004Z,1001.94
2016-08-19T04:39:55.993Z,1001.92
2016-08-19T04:40:55.981Z,1001.92
2016-08-19T04:41:55.967Z,1001.95
2016-08-19T04:42:55.958Z,1001.95
2016-08-19T04:43:55.947Z,1001.96
2016-08-19T04:44:55.939Z,1001.97
2016-08-19T04:45:55.924Z,1001.97
2016-08-19T04:46:55.913Z,1002
2016-08-19T04:47:55.904Z,1001.98
2016-08-19T04:48:55.891Z,1002
2016-08-19T04:49:55.883Z,1001.93
2016-08-19T04:50:55.870Z,1001.93
2016-08-19T04:51:55.860Z,1001.95
2016-08-19T04:52:55.847Z,1001.92
2016-08-19T04:53:55.836Z,1001.95
2016-08-19T04:54:55.823Z,1001.91
2016-08-19T04:55:55.814Z,1001.96
2016-08-19T04:56:55.802Z,1001.96
2016-08-19T04:57:55.791Z,1001.93
2016-08-19T04:58:55.781Z,1001.92
2016-08-19T04:59:55.768Z,1001.97
2016-08-19T05:00:55.759Z,1001.95
2016-08-19T05:01:55.749Z,1001.95
2016-08-19T05:02:55.733Z,1001.97
2016-08-19T05:03:55.724Z,1002
2016-08-19T05:04:55.714Z,1001.97
2016-08-19T05:05:55.702Z,1001.97
2016-08-19T05:06:55.700Z,1001.97
2016-08-19T05:07:55.679Z,1002
2016-08-19T05:08:55.669Z,1002
2016-08-19T05:09:55.659Z,1002.02
2016-08-19T05:10:55.646Z,1002.03
2016-08-19T05:11:55.635Z,1002.06
2016-08-19T05:12:55.626Z,1002.08
2016-08-19T05:13:55.613Z,1002.06
2016-08-19T05:14:55.602Z,1002.04
2016-08-19T05:15:55.589Z,1002.07
2016-08-19T05:16:55.581Z,1002.05
2016-08-19T05:17:55.570Z,1002.08
2016-08-19T05:18:55.558Z,1002.06
2016-08-19T05:19:55.548Z,1002.08
2016-08-19T05:20:55.538Z,1002.04
2016-08-19T05:21:55.525Z,1002.11
2016-08-19T05:22:55.513Z,1002.04
2016-08-19T05:23:55.504Z,1002.03
2016-08-19T05:24:55.492Z,1002.05
2016-08-19T05:25:55.482Z,1002.07
2016-08-19T05:26:55.469Z,1002.09
2016-08-19T05:27:55.459Z,1002.04
2016-08-19T05:28:55.449Z,1002.06
2016-08-19T05:29:55.436Z,1002.05
2016-08-19T05:30:55.427Z,1002.06
2016-08-19T05:31:55.415Z,1002.07
2016-08-19T05:32:55.404Z,1002.09
2016-08-19T05:33:55.394Z,1002.09
2016-08-19T05:34:55.383Z,1002.1
2016-08-19T05:35:55.373Z,1002.07
2016-08-19T05:36:55.362Z,1002.1
2016-08-19T05:37:55.349Z,1002.11
2016-08-19T05:38:55.339Z,1002.1
2016-08-19T05:39:55.330Z,1002.11
2016-08-19T05:40:55.320Z,1002.12
2016-08-19T05:41:55.307Z,1002.12
2016-08-19T05:42:55.296Z,1002.14
2016-08-19T05:43:55.287Z,1002.17
2016-08-19T05:44:55.276Z,1002.17
2016-08-19T05:45:55.265Z,1002.21
2016-08-19T05:46:55.255Z,1002.2
2016-08-19T05:47:55.243Z,1002.26
2016-08-19T05:48:55.238Z,1002.25
2016-08-19T05:49:55.222Z,1002.26
2016-08-19T05:50:55.210Z,1002.27
2016-08-19T05:51:55.200Z,1002.28
2016-08-19T05:52:55.189Z,1002.27
2016-08-19T05:53:55.184Z,1002.26
2016-08-19T05:54:55.177Z,1002.29
2016-08-19T05:55:55.167Z,1002.26
2016-08-19T05:56:55.155Z,1002.26
2016-08-19T05:57:55.137Z,1002.24
2016-08-19T05:59:55.114Z,1002.28
2016-08-19T06:00:55.104Z,1002.25
2016-08-19T06:01:55.096Z,1002.21
2016-08-19T06:02:55.084Z,1002.28
2016-08-19T06:03:55.073Z,1002.25
2016-08-19T06:04:55.067Z,1002.27
2016-08-19T06:05:55.052Z,1002.33
2016-08-19T06:06:55.043Z,1002.29
2016-08-19T06:07:55.031Z,1002.3
2016-08-19T06:08:55.021Z,1002.3
2016-08-19T06:09:55.011Z,1002.35
2016-08-19T06:10:55.000Z,1002.36
2016-08-19T06:11:54.990Z,1002.35
2016-08-19T06:12:54.979Z,1002.35
2016-08-19T06:13:54.968Z,1002.35
2016-08-19T06:14:54.958Z,1002.4
2016-08-19T06:15:54.949Z,1002.41
2016-08-19T06:16:54.937Z,1002.39
2016-08-19T06:17:54.928Z,1002.41
2016-08-19T06:18:54.916Z,1002.42
2016-08-19T06:19:54.908Z,1002.44
2016-08-19T06:20:54.896Z,1002.42
2016-08-19T06:21:54.888Z,1002.42
2016-08-19T06:22:54.878Z,1002.42
2016-08-19T06:23:54.865Z,1002.45
2016-08-19T06:24:54.856Z,1002.44
2016-08-19T06:25:54.846Z,1002.45
2016-08-19T06:26:54.835Z,1002.42
2016-08-19T06:27:54.826Z,1002.4
2016-08-19T06:28:54.815Z,1002.44
2016-08-19T06:29:54.806Z,1002.46
2016-08-19T06:30:54.796Z,1002.43
2016-08-19T06:31:54.786Z,1002.43
2016-08-19T06:32:54.776Z,1002.46
2016-08-19T06:33:54.767Z,1002.47
2016-08-19T06:34:54.755Z,1002.47
2016-08-19T06:35:54.745Z,1002.47
2016-08-19T06:36:54.740Z,1002.47
2016-08-19T06:37:54.727Z,1002.48
2016-08-19T06:38:54.715Z,1002.47
2016-08-19T06:39:54.707Z,1002.46
2016-08-19T06:40:54.697Z,1002.47
2016-08-19T06:41:54.687Z,1002.46
2016-08-19T06:42:54.676Z,1002.52
2016-08-19T06:43:54.667Z,1002.5
2016-08-19T06:44:54.657Z,1002.53
2016-08-19T06:45:54.647Z,1002.46
2016-08-19T06:46:54.637Z,1002.45
2016-08-19T06:47:54.628Z,1002.46
2016-08-19T06:48:54.620Z,1002.46
2016-08-19T06:49:54.612Z,1002.46
2016-08-19T06:50:54.599Z,1002.47
2016-08-19T06:51:54.591Z,1002.45
2016-08-19T06:52:54.581Z,1002.48
2016-08-19T06:53:54.571Z,1002.44
2016-08-19T06:54:54.561Z,1002.46
2016-08-19T06:55:54.559Z,1002.47
2016-08-19T06:56:54.541Z,1002.51
2016-08-19T06:57:54.533Z,1002.46
2016-08-19T06:58:54.522Z,1002.5
2016-08-19T06:59:54.512Z,1002.5
2016-08-19T07:00:54.502Z,1002.47
2016-08-19T07:01:54.493Z,1002.52
2016-08-19T07:02:54.484Z,1002.5
2016-08-19T07:03:54.475Z,1002.51
2016-08-19T07:04:54.465Z,1002.53
2016-08-19T07:05:54.455Z,1002.54
2016-08-19T07:06:54.448Z,1002.53
2016-08-19T07:07:54.436Z,1002.52
2016-08-19T07:08:54.430Z,1002.5
2016-08-19T07:09:54.423Z,1002.5
2016-08-19T07:10:54.413Z,1002.48
2016-08-19T07:11:54.399Z,1002.5
2016-08-19T07:12:54.390Z,1002.5
2016-08-19T07:13:54.382Z,1002.53
2016-08-19T07:14:54.372Z,1002.5
2016-08-19T07:15:54.363Z,1002.53
2016-08-19T07:16:54.353Z,1002.56
2016-08-19T07:17:54.346Z,1002.56
2016-08-19T07:18:54.337Z,1002.58
2016-08-19T07:19:54.326Z,1002.58
2016-08-19T07:20:54.318Z,1002.56
2016-08-19T07:21:54.308Z,1002.55
2016-08-19T07:22:54.298Z,1002.52
2016-08-19T07:23:54.290Z,1002.52
2016-08-19T07:24:54.282Z,1002.53
2016-08-19T07:25:54.273Z,1002.54
2016-08-19T07:26:54.263Z,1002.51
2016-08-19T07:27:54.252Z,1002.54
2016-08-19T07:28:54.245Z,1002.54
2016-08-19T07:29:54.238Z,1002.51
2016-08-19T07:30:54.229Z,1002.51
2016-08-19T07:31:54.219Z,1002.54
2016-08-19T07:32:54.211Z,1002.53
2016-08-19T07:33:54.205Z,1002.54
2016-08-19T07:34:54.192Z,1002.52
2016-08-19T07:35:54.183Z,1002.53
2016-08-19T07:36:54.174Z,1002.53
2016-08-19T07:37:54.170Z,1002.53
2016-08-19T07:38:54.156Z,1002.53
2016-08-19T07:39:54.156Z,1002.57
2016-08-19T07:40:54.139Z,1002.56
2016-08-19T07:41:54.133Z,1002.55
2016-08-19T07:42:54.124Z,1002.57
2016-08-19T07:43:54.117Z,1002.56
2016-08-19T07:44:54.106Z,1002.55
2016-08-19T07:45:54.098Z,1002.57
2016-08-19T07:46:54.087Z,1002.59
2016-08-19T07:47:54.082Z,1002.57
2016-08-19T07:48:54.070Z,1002.58
2016-08-19T07:49:54.063Z,1002.58
2016-08-19T07:50:54.055Z,1002.57
2016-08-19T07:51:54.046Z,1002.61
2016-08-19T07:52:54.036Z,1002.57
2016-08-19T07:53:54.029Z,1002.61
2016-08-19T07:54:54.020Z,1002.57
2016-08-19T07:55:54.013Z,1002.58
2016-08-19T07:56:54.007Z,1002.54
2016-08-19T07:57:53.996Z,1002.52
2016-08-19T07:58:53.987Z,1002.55
2016-08-19T07:59:53.979Z,1002.5
2016-08-19T08:00:53.972Z,1002.48
2016-08-19T08:01:53.963Z,1002.51
2016-08-19T08:02:53.953Z,1002.53
2016-08-19T08:03:53.949Z,1002.48
2016-08-19T08:04:53.941Z,1002.54
2016-08-19T08:05:53.929Z,1002.52
2016-08-19T08:06:53.922Z,1002.5
2016-08-19T08:07:53.920Z,1002.51
2016-08-19T08:08:53.906Z,1002.5
2016-08-19T08:09:53.898Z,1002.49
2016-08-19T08:10:53.890Z,1002.51
2016-08-19T08:11:53.881Z,1002.49
2016-08-19T08:12:53.874Z,1002.5
2016-08-19T08:13:53.867Z,1002.49
2016-08-19T08:14:53.858Z,1002.48
2016-08-19T08:15:53.850Z,1002.53
2016-08-19T08:16:53.843Z,1002.54
2016-08-19T08:17:53.834Z,1002.6
2016-08-19T08:18:53.828Z,1002.57
2016-08-19T08:19:53.821Z,1002.55
2016-08-19T08:20:53.814Z,1002.57
2016-08-19T08:21:53.808Z,1002.54
2016-08-19T08:22:53.809Z,1002.57
2016-08-19T08:23:53.799Z,1002.55
2016-08-19T08:24:53.792Z,1002.63
2016-08-19T08:25:53.787Z,1002.61
2016-08-19T08:26:53.783Z,1002.58
2016-08-19T08:27:53.778Z,1002.56
2016-08-19T08:28:53.772Z,1002.5
2016-08-19T08:29:53.769Z,1002.49
2016-08-19T08:30:53.763Z,1002.53
2016-08-19T08:31:53.760Z,1002.5
2016-08-19T08:32:53.755Z,1002.5
2016-08-19T08:33:53.751Z,1002.5
2016-08-19T08:34:53.747Z,1002.5
2016-08-19T08:35:53.743Z,1002.49
2016-08-19T08:36:53.738Z,1002.47
2016-08-19T08:37:53.734Z,1002.48
2016-08-19T08:38:53.732Z,1002.49
2016-08-19T08:39:53.724Z,1002.46
2016-08-19T08:40:53.721Z,1002.48
2016-08-19T08:41:53.716Z,1002.5
2016-08-19T08:42:53.713Z,1002.48
2016-08-19T08:43:53.708Z,1002.46
2016-08-19T08:44:53.705Z,1002.47
2016-08-19T08:45:53.702Z,1002.47
2016-08-19T08:46:53.697Z,1002.45
2016-08-19T08:47:53.692Z,1002.47
2016-08-19T08:48:53.689Z,1002.49
2016-08-19T08:49:53.684Z,1002.49
2016-08-19T08:50:53.682Z,1002.49
2016-08-19T08:51:53.675Z,1002.49
2016-08-19T08:52:53.671Z,1002.46
2016-08-19T08:53:53.667Z,1002.49
2016-08-19T08:54:53.662Z,1002.47
2016-08-19T08:55:53.658Z,1002.46
2016-08-19T08:56:53.653Z,1002.46
2016-08-19T08:57:53.647Z,1002.47
2016-08-19T08:58:53.643Z,1002.46
2016-08-19T08:59:53.639Z,1002.48
2016-08-19T09:00:53.633Z,1002.49
2016-08-19T09:01:53.628Z,1002.47
2016-08-19T09:02:53.623Z,1002.47
2016-08-19T09:03:53.621Z,1002.48
2016-08-19T09:04:53.614Z,1002.47
2016-08-19T09:05:53.610Z,1002.48
2016-08-19T09:06:53.605Z,1002.44
2016-08-19T09:07:53.599Z,1002.49
2016-08-19T09:08:53.594Z,1002.48
2016-08-19T09:09:53.589Z,1002.51
2016-08-19T09:10:53.587Z,1002.52
2016-08-19T09:11:53.577Z,1002.54
2016-08-19T09:12:53.573Z,1002.47
2016-08-19T09:13:53.570Z,1002.46
2016-08-19T09:14:53.564Z,1002.48
2016-08-19T09:15:53.559Z,1002.45
2016-08-19T09:16:53.553Z,1002.39
2016-08-19T09:17:53.548Z,1002.4
2016-08-19T09:18:53.544Z,1002.39
2016-08-19T09:19:53.538Z,1002.39
2016-08-19T09:20:53.533Z,1002.36
2016-08-19T09:21:53.528Z,1002.38
2016-08-19T09:22:53.523Z,1002.4
2016-08-19T09:23:53.518Z,1002.34
2016-08-19T09:24:53.512Z,1002.39
2016-08-19T09:25:53.510Z,1002.43
2016-08-19T09:26:53.502Z,1002.41
2016-08-19T09:27:53.496Z,1002.45
2016-08-19T09:28:53.496Z,1002.43
2016-08-19T09:29:53.488Z,1002.41
2016-08-19T09:30:53.481Z,1002.4
2016-08-19T09:31:53.476Z,1002.4
2016-08-19T09:32:53.472Z,1002.36
2016-08-19T09:33:53.465Z,1002.4
2016-08-19T09:34:53.459Z,1002.39
2016-08-19T09:35:53.455Z,1002.38
2016-08-19T09:36:53.449Z,1002.39
2016-08-19T09:37:53.443Z,1002.38
2016-08-19T09:38:53.440Z,1002.39
2016-08-19T09:39:53.432Z,1002.38
2016-08-19T09:40:53.429Z,1002.4
2016-08-19T09:41:53.428Z,1002.39
2016-08-19T09:42:53.416Z,1002.39
2016-08-19T09:43:53.413Z,1002.41
2016-08-19T09:44:53.406Z,1002.39
2016-08-19T09:45:53.400Z,1002.45
2016-08-19T09:46:53.396Z,1002.41
2016-08-19T09:47:53.391Z,1002.43
2016-08-19T09:48:53.384Z,1002.43
2016-08-19T09:49:53.379Z,1002.39
2016-08-19T09:50:53.373Z,1002.45
2016-08-19T09:51:53.370Z,1002.41
2016-08-19T09:52:53.365Z,1002.44
2016-08-19T09:53:53.359Z,1002.42
2016-08-19T09:54:53.353Z,1002.42
2016-08-19T09:55:53.345Z,1002.4
2016-08-19T09:56:53.340Z,1002.41
2016-08-19T09:57:53.335Z,1002.41
2016-08-19T09:58:53.329Z,1002.39
2016-08-19T09:59:53.321Z,1002.39
2016-08-19T10:00:53.328Z,1002.37
2016-08-19T10:01:53.313Z,1002.34
2016-08-19T10:02:53.307Z,1002.33
2016-08-19T10:03:53.304Z,1002.31
2016-08-19T10:04:53.298Z,1002.31
2016-08-19T10:05:53.295Z,1002.34
2016-08-19T10:06:53.286Z,1002.35
2016-08-19T10:07:53.280Z,1002.36
2016-08-19T10:08:53.281Z,1002.35
2016-08-19T10:09:53.271Z,1002.35
2016-08-19T10:10:53.263Z,1002.31
2016-08-19T10:11:53.257Z,1002.3
2016-08-19T10:12:53.252Z,1002.29
2016-08-19T10:13:53.248Z,1002.26
2016-08-19T10:14:53.250Z,1002.26
2016-08-19T10:15:53.235Z,1002.29
2016-08-19T10:16:53.239Z,1002.27
2016-08-19T10:17:53.223Z,1002.28
2016-08-19T10:18:53.220Z,1002.27
2016-08-19T10:19:53.214Z,1002.26
2016-08-19T10:20:53.209Z,1002.32
2016-08-19T10:21:53.202Z,1002.31
2016-08-19T10:22:53.197Z,1002.31
2016-08-19T10:23:53.192Z,1002.36
2016-08-19T10:24:53.188Z,1002.36
2016-08-19T10:25:53.183Z,1002.33
2016-08-19T10:26:53.178Z,1002.37
2016-08-19T10:27:53.171Z,1002.33
2016-08-19T10:28:53.166Z,1002.32
2016-08-19T10:29:53.162Z,1002.27
2016-08-19T10:30:53.156Z,1002.28
2016-08-19T10:31:53.151Z,1002.26
2016-08-19T10:32:53.147Z,1002.29
2016-08-19T10:33:53.140Z,1002.28
2016-08-19T10:34:53.134Z,1002.27
2016-08-19T10:35:53.129Z,1002.27
2016-08-19T10:36:53.124Z,1002.3
2016-08-19T10:37:53.121Z,1002.31
2016-08-19T10:38:53.114Z,1002.33
2016-08-19T10:39:53.109Z,1002.27
2016-08-19T10:40:53.105Z,1002.25
2016-08-19T10:41:53.107Z,1002.29
2016-08-19T10:42:53.097Z,1002.25
2016-08-19T10:43:53.093Z,1002.26
2016-08-19T10:44:53.090Z,1002.24
2016-08-19T10:45:53.087Z,1002.24
2016-08-19T10:46:53.082Z,1002.23
2016-08-19T10:47:53.079Z,1002.34
2016-08-19T10:48:53.075Z,1002.36
2016-08-19T10:49:53.072Z,1002.32
2016-08-19T10:50:53.069Z,1002.34
2016-08-19T10:51:53.067Z,1002.34
2016-08-19T10:52:53.065Z,1002.33
2016-08-19T10:53:53.061Z,1002.26
2016-08-19T10:54:53.064Z,1002.29
2016-08-19T10:55:53.070Z,1002.28
2016-08-19T10:56:53.055Z,1002.29
2016-08-19T10:57:53.054Z,1002.32
2016-08-19T10:58:53.057Z,1002.31
2016-08-19T10:59:53.053Z,1002.3
2016-08-19T11:00:53.054Z,1002.35
2016-08-19T11:01:53.052Z,1002.35
2016-08-19T11:02:53.050Z,1002.37
2016-08-19T11:03:53.053Z,1002.37
2016-08-19T11:04:53.052Z,1002.34
2016-08-19T11:05:53.054Z,1002.32
2016-08-19T11:06:53.052Z,1002.35
2016-08-19T11:07:53.058Z,1002.32
2016-08-19T11:08:53.056Z,1002.35
2016-08-19T11:09:53.054Z,1002.31
2016-08-19T11:10:53.057Z,1002.26
2016-08-19T11:11:53.057Z,1002.27
2016-08-19T11:12:53.060Z,1002.28
2016-08-19T11:13:53.060Z,1002.24
2016-08-19T11:14:53.062Z,1002.25
2016-08-19T11:15:53.066Z,1002.25
2016-08-19T11:16:53.067Z,1002.24
2016-08-19T11:17:53.078Z,1002.24
2016-08-19T11:18:53.070Z,1002.22
2016-08-19T11:19:53.072Z,1002.16
2016-08-19T11:20:53.074Z,1002.17
2016-08-19T11:21:53.078Z,1002.21
2016-08-19T11:22:53.079Z,1002.19
2016-08-19T11:23:53.082Z,1002.17
2016-08-19T11:24:53.085Z,1002.14
2016-08-19T11:25:53.087Z,1002.13
2016-08-19T11:26:53.092Z,1002.13
2016-08-19T11:27:53.093Z,1002.15
2016-08-19T11:28:53.095Z,1002.12
2016-08-19T11:29:53.100Z,1002.11
2016-08-19T11:30:53.103Z,1002.1
2016-08-19T11:31:53.107Z,1002.04
2016-08-19T11:33:53.117Z,1002.05
2016-08-19T11:34:53.115Z,1002.08
2016-08-19T11:35:53.118Z,1002.01
2016-08-19T11:36:53.123Z,1002.01
2016-08-19T11:37:53.145Z,1002.02
2016-08-19T11:38:53.141Z,1002
2016-08-19T11:39:53.134Z,1002
2016-08-19T11:40:53.138Z,1002
2016-08-19T11:41:53.141Z,1001.99
2016-08-19T11:42:53.145Z,1001.99
2016-08-19T11:43:53.149Z,1001.99
2016-08-19T11:44:53.153Z,1001.99
2016-08-19T11:45:53.161Z,1001.98
2016-08-19T11:46:53.162Z,1001.94
2016-08-19T11:47:53.181Z,1001.94
2016-08-19T11:48:53.170Z,1001.9
2016-08-19T11:49:53.176Z,1001.9
2016-08-19T11:50:53.177Z,1001.84
2016-08-19T11:51:53.181Z,1001.9
2016-08-19T11:52:53.184Z,1001.91
2016-08-19T11:53:53.189Z,1001.98
2016-08-19T11:54:53.193Z,1001.92
2016-08-19T11:55:53.200Z,1001.92
2016-08-19T11:56:53.203Z,1001.89
2016-08-19T11:57:53.207Z,1001.86
2016-08-19T11:58:53.209Z,1001.85
2016-08-19T11:59:53.219Z,1001.85
2016-08-19T12:00:53.217Z,1001.85
2016-08-19T12:01:53.222Z,1001.85
2016-08-19T12:02:53.239Z,1001.85
2016-08-19T12:03:53.230Z,1001.81
2016-08-19T12:04:53.242Z,1001.8
2016-08-19T12:05:53.248Z,1001.81
2016-08-19T12:06:53.247Z,1001.78
2016-08-19T12:07:53.247Z,1001.79
2016-08-19T12:08:53.259Z,1001.77
2016-08-19T12:09:53.279Z,1001.78
2016-08-19T12:10:53.265Z,1001.75
2016-08-19T12:11:53.269Z,1001.8
2016-08-19T12:12:53.276Z,1001.8